Portada
METAR-TAF:

METAR-TAF

Aeroports :

Nakhon Ratchasima, Tailàndia

latitud: 14-56-58N, longitud: 102-18-45E, altitud: 233 m

Observació

L'informe es va fer fa 58 minuts, a les 11:00 UTC
Vent 4 kt del Nord/Nord-Est, variant entre Nord i Nord-Est
Temperatura 21°C
Humitat 46%
Pressió 1018 hPa
Visibilitat: 8000 m

METAR: VTUQ 071100Z 02004KT 350V050 8000 NSC 21/09 Q1018 NOSIG

Hora: 18:58 (11:58 UTC)

Pronòstic

L'informe es va fer fa 58 minuts, a les 11:00 UTC
Pronòstic vàlid del 07 a les 12 UTC al 08 a les 12 UTC
Vent 11 kt del Nord-Est
Visibilitat 10 km o més
Escasses núvols a una alçada de 3500 ft

TAF: VTUQ 071100Z 0712/0812 04011KT 9999 FEW035

Observacions i pronòstics meteorològics de més de 4000 aeroports (METAR i TAF).

Les estacions disponibles són els punts grocs i vermells al mapa.

Posi el ratolí al punt desitjat per veure el nom de l'estació.

Feu clic per veure les observacions i els pronòstics meteorològics.

Per canviar el mapa: feu clic els botons verds amb una creu de color negre per apropar; al botó verd amb un guió per allunyar la imatge; o en les fletxes verdes per a mapes adjacents.


METAR-TAF: